Aérodrome :
LOGIN :

S'inscrire | Disclaimer

   EN    FR    IT 

 










Légende :    VFR   VFR Marginal   IFR   IFR Intensif   IFR Très Intensif
Visi : 
Plafond : 
>= 8 km
>= 3000ft
5 à 8 km
1000 à 3000 ft
1500m à 5 km
500 à 1000 ft
800 à 1500m
200 à 500 ft
< 800m
< 200 ft
Symboles :   Orages  Brouillard  Fortes neiges  Fortes précipitations  Vent > 20 kt
SIGMETs :   Divers  Orages  Givrage  Turbulence  Onde Orograph.  Cendres Volcan.






- Altitude de l'aérodrome : 137 ft


LIPS - Istrana AFB Treviso

DERNIER METAR :
  • 121055Z /////KT 5000 -RA BR SCT010 BKN025 12/11 Q1003 RMK OVC VIS MIN 5000 WIND THR26 01009KT WIND THR08 05009KT WHT

METARs EXPIRÉS :
  • 120955Z /////KT 4500 -RA BR SCT010 BKN020 11/10 Q1002 RERA RMK OVC VIS MIN 4500 WIND THR26 01014KT WIND THR08 05013KT GRN
  • 120855Z /////KT 3500 RA BR SCT008 BKN015 11/10 Q1003 RMK OVC VIS MIN 3500 WIND THR26 01013KT WIND THR08 05013KT YLO

TAF TAF LIPS
Valide du 12 à 12h jusqu'au 12 à 21h UTC


121100Z 1212/1221 03015KT 6000 RA SCT020 BKN040
TEMPO 1218/1221 3000 SHRA FEW010CB BKN025



MET'MAP, la Météo Aéronautique d'un coup d'oeil ! - Copyright ORBIFLY Décembre 2007 - Disclaimer

ORBIFLY MET'MAP TEAM :

Programmation & Développement : Alexandra Zaïnal
Conception & Développement : Baudouin d'Aumeries
Co-Programmation & Développement : Marc-Olivier Méhu
Soutien technique & logistique : Manuel Goepfert

Contact : metmap@orbifly.com




SOURCES & CREDITS :

   NOAA